WARR82 KTTS-KTTS
Flight info
| Callsign | WARR82 |
|---|---|
| Flight time | 0h 2m |
| Altitude | 500 |
| Route | VFR ANGEL |
| Aircraft | H60/L-VD/C |
Departure
| Time | 2026-05-08 22:07 |
|---|---|
| Airport | Space Florida Launch and Landing Facility (KTTS) |
Arrival
| Time | 2026-05-08 22:09 |
|---|---|
| Airport | Space Florida Launch and Landing Facility (KTTS) |
| Time | Latitude | Longitude | Altitude | Speed | Heading |
|---|---|---|---|---|---|
| 2026-05-08 20:58 | 28.59981 | -80.67921 | 16 ft | 0 kts | 57° |
| 2026-05-08 21:05 | 28.59981 | -80.67922 | 16 ft | 0 kts | 57° |
| 2026-05-08 21:55 | 28.59982 | -80.67920 | 16 ft | 1 kts | 49° |
| 2026-05-08 21:56 | 28.59963 | -80.67969 | 16 ft | 0 kts | 233° |
| 2026-05-08 21:56 | 28.59962 | -80.67970 | 16 ft | 1 kts | 232° |
| 2026-05-08 21:56 | 28.59944 | -80.67993 | 17 ft | 7 kts | 229° |
| 2026-05-08 21:56 | 28.59926 | -80.68016 | 16 ft | 0 kts | 211° |
| 2026-05-08 21:59 | 28.59923 | -80.68018 | 16 ft | 3 kts | 212° |
| 2026-05-08 21:59 | 28.59881 | -80.68045 | 16 ft | 5 kts | 201° |
| 2026-05-08 21:59 | 28.59879 | -80.68045 | 16 ft | 0 kts | 201° |
| 2026-05-08 22:01 | 28.59872 | -80.68048 | 16 ft | 5 kts | 201° |
| 2026-05-08 22:01 | 28.59801 | -80.68078 | 16 ft | 15 kts | 199° |
| 2026-05-08 22:01 | 28.59746 | -80.68148 | 15 ft | 9 kts | 270° |
| 2026-05-08 22:01 | 28.59748 | -80.68175 | 15 ft | 0 kts | 285° |
| 2026-05-08 22:02 | 28.59750 | -80.68181 | 15 ft | 2 kts | 283° |
| 2026-05-08 22:02 | 28.59756 | -80.68208 | 17 ft | 6 kts | 284° |
| 2026-05-08 22:02 | 28.59769 | -80.68275 | 17 ft | 10 kts | 284° |
| 2026-05-08 22:02 | 28.59797 | -80.68324 | 16 ft | 6 kts | 329° |
| 2026-05-08 22:03 | 28.59833 | -80.68351 | 17 ft | 9 kts | 327° |
| 2026-05-08 22:03 | 28.59964 | -80.68438 | 35 ft | 33 kts | 327° |
| 2026-05-08 22:03 | 28.60244 | -80.68639 | 84 ft | 65 kts | 345° |
| 2026-05-08 22:03 | 28.60755 | -80.68941 | 214 ft | 105 kts | 336° |
| 2026-05-08 22:04 | 28.61402 | -80.69530 | 321 ft | 129 kts | 318° |
| 2026-05-08 22:04 | 28.61949 | -80.70335 | 433 ft | 127 kts | 309° |
| 2026-05-08 22:04 | 28.62465 | -80.71150 | 599 ft | 127 kts | 311° |
| 2026-05-08 22:04 | 28.62995 | -80.71945 | 574 ft | 121 kts | 311° |
| 2026-05-08 22:05 | 28.63526 | -80.72698 | 601 ft | 123 kts | 311° |
| 2026-05-08 22:05 | 28.64068 | -80.73482 | 603 ft | 124 kts | 312° |
| 2026-05-08 22:05 | 28.64578 | -80.74255 | 610 ft | 114 kts | 313° |
| 2026-05-08 22:05 | 28.65157 | -80.74719 | 604 ft | 97 kts | 2° |
| 2026-05-08 22:06 | 28.65759 | -80.74671 | 602 ft | 83 kts | 42° |
| 2026-05-08 22:06 | 28.66138 | -80.74187 | 606 ft | 88 kts | 85° |
| 2026-05-08 22:06 | 28.66211 | -80.73438 | 609 ft | 109 kts | 102° |
| 2026-05-08 22:06 | 28.66173 | -80.72514 | 610 ft | 118 kts | 103° |
| 2026-05-08 22:07 | 28.66096 | -80.71688 | 635 ft | 94 kts | 102° |
| 2026-05-08 22:07 | 28.65876 | -80.71052 | 620 ft | 83 kts | 118° |
| 2026-05-08 22:07 | 28.65487 | -80.70435 | 599 ft | 116 kts | 122° |
| 2026-05-08 22:07 | 28.65056 | -80.69682 | 609 ft | 111 kts | 123° |
| 2026-05-08 22:08 | 28.64655 | -80.68941 | 614 ft | 111 kts | 123° |
| 2026-05-08 22:08 | 28.64189 | -80.68167 | 634 ft | 114 kts | 133° |
| 2026-05-08 22:08 | 28.63564 | -80.67729 | 615 ft | 102 kts | 159° |
| 2026-05-08 22:08 | 28.62846 | -80.67419 | 583 ft | 119 kts | 159° |
| 2026-05-08 22:09 | 28.62214 | -80.67069 | 466 ft | 78 kts | 124° |
| 2026-05-08 22:09 | 28.62047 | -80.66732 | 291 ft | 18 kts | 109° |
| 2026-05-08 22:09 | 28.62042 | -80.66714 | 207 ft | 0 kts | 106° |
| 2026-05-08 22:10 | 28.62038 | -80.66713 | 218 ft | 6 kts | 175° |
| 2026-05-08 22:10 | 28.61902 | -80.66719 | 215 ft | 35 kts | 188° |
| 2026-05-08 22:10 | 28.61580 | -80.66786 | 217 ft | 50 kts | 188° |
| 2026-05-08 22:10 | 28.61234 | -80.66828 | 215 ft | 50 kts | 184° |
| 2026-05-08 22:11 | 28.60886 | -80.66851 | 214 ft | 50 kts | 182° |
| 2026-05-08 22:11 | 28.60537 | -80.66861 | 209 ft | 50 kts | 180° |
| 2026-05-08 22:11 | 28.60189 | -80.66852 | 217 ft | 50 kts | 178° |
| 2026-05-08 22:11 | 28.59979 | -80.66589 | 215 ft | 50 kts | 95° |
| 2026-05-08 22:12 | 28.60146 | -80.66286 | 208 ft | 50 kts | 12° |
| 2026-05-08 22:12 | 28.60488 | -80.66273 | 213 ft | 50 kts | 339° |
| 2026-05-08 22:12 | 28.60812 | -80.66419 | 212 ft | 50 kts | 338° |
| 2026-05-08 22:12 | 28.61136 | -80.66566 | 208 ft | 50 kts | 338° |
| 2026-05-08 22:13 | 28.61460 | -80.66712 | 216 ft | 50 kts | 338° |
| 2026-05-08 22:13 | 28.61784 | -80.66859 | 217 ft | 50 kts | 338° |
| 2026-05-08 22:13 | 28.62108 | -80.67005 | 215 ft | 50 kts | 338° |
| 2026-05-08 22:13 | 28.62432 | -80.67152 | 214 ft | 50 kts | 338° |
| 2026-05-08 22:14 | 28.62756 | -80.67299 | 215 ft | 50 kts | 338° |
| 2026-05-08 22:14 | 28.63080 | -80.67446 | 215 ft | 50 kts | 338° |
| 2026-05-08 22:14 | 28.63404 | -80.67591 | 214 ft | 50 kts | 338° |
| 2026-05-08 22:14 | 28.63725 | -80.67733 | 299 ft | 48 kts | 338° |
| 2026-05-08 22:15 | 28.64094 | -80.67883 | 420 ft | 68 kts | 341° |
| 2026-05-08 22:15 | 28.64412 | -80.68271 | 409 ft | 73 kts | 266° |
| 2026-05-08 22:15 | 28.64166 | -80.68736 | 453 ft | 82 kts | 185° |
| 2026-05-08 22:15 | 28.63543 | -80.68761 | 417 ft | 94 kts | 154° |
| 2026-05-08 22:16 | 28.62915 | -80.68480 | 374 ft | 99 kts | 150° |
| 2026-05-08 22:16 | 28.62279 | -80.68137 | 434 ft | 103 kts | 150° |
| 2026-05-08 22:16 | 28.61616 | -80.67775 | 538 ft | 107 kts | 149° |
| 2026-05-08 22:16 | 28.60938 | -80.67398 | 574 ft | 110 kts | 147° |
| 2026-05-08 22:17 | 28.60274 | -80.66972 | 455 ft | 107 kts | 140° |
| 2026-05-08 22:17 | 28.59803 | -80.66419 | 633 ft | 89 kts | 123° |
| 2026-05-08 22:17 | 28.59494 | -80.65863 | 622 ft | 80 kts | 121° |
| 2026-05-08 22:17 | 28.59172 | -80.65354 | 489 ft | 78 kts | 125° |
| 2026-05-08 22:18 | 28.58854 | -80.64904 | 448 ft | 71 kts | 125° |
| 2026-05-08 22:18 | 28.58563 | -80.64457 | 383 ft | 68 kts | 117° |
| 2026-05-08 22:18 | 28.58572 | -80.63973 | 395 ft | 74 kts | 53° |
| 2026-05-08 22:18 | 28.59105 | -80.63761 | 448 ft | 94 kts | 345° |
| 2026-05-08 22:19 | 28.59696 | -80.64171 | 392 ft | 109 kts | 319° |
| 2026-05-08 22:19 | 28.60240 | -80.64794 | 413 ft | 111 kts | 316° |
| 2026-05-08 22:19 | 28.60715 | -80.65464 | 453 ft | 102 kts | 295° |
| 2026-05-08 22:19 | 28.60735 | -80.66145 | 553 ft | 81 kts | 224° |
| 2026-05-08 22:20 | 28.60323 | -80.66349 | 482 ft | 61 kts | 161° |
| 2026-05-08 22:20 | 28.59997 | -80.66210 | 400 ft | 35 kts | 143° |
| 2026-05-08 22:20 | 28.59913 | -80.66152 | 358 ft | 2 kts | 63° |
| 2026-05-08 22:20 | 28.59908 | -80.66175 | 331 ft | 3 kts | 63° |
| 2026-05-08 22:21 | 28.59896 | -80.66199 | 330 ft | 3 kts | 63° |
| 2026-05-08 22:21 | 28.59886 | -80.66223 | 328 ft | 3 kts | 64° |
| 2026-05-08 22:21 | 28.59875 | -80.66247 | 331 ft | 3 kts | 64° |
| 2026-05-08 22:21 | 28.59865 | -80.66271 | 343 ft | 3 kts | 64° |
| 2026-05-08 22:22 | 28.59854 | -80.66295 | 336 ft | 3 kts | 64° |
| 2026-05-08 22:22 | 28.59844 | -80.66319 | 339 ft | 3 kts | 64° |
| 2026-05-08 22:22 | 28.59834 | -80.66344 | 348 ft | 3 kts | 64° |
| 2026-05-08 22:22 | 28.59826 | -80.66363 | 353 ft | 1 kts | 64° |
| 2026-05-08 22:23 | 28.59826 | -80.66365 | 380 ft | 0 kts | 64° |
| 2026-05-08 22:23 | 28.59825 | -80.66366 | 419 ft | 0 kts | 64° |
| 2026-05-08 22:24 | 28.59825 | -80.66368 | 436 ft | 0 kts | 64° |
| 2026-05-08 22:24 | 28.59825 | -80.66367 | 449 ft | 0 kts | 64° |
| 2026-05-08 22:24 | 28.59824 | -80.66369 | 464 ft | 0 kts | 64° |
| 2026-05-08 22:24 | 28.59822 | -80.66373 | 471 ft | 0 kts | 64° |
| 2026-05-08 22:25 | 28.59822 | -80.66374 | 477 ft | 0 kts | 64° |
| 2026-05-08 22:25 | 28.59822 | -80.66375 | 484 ft | 0 kts | 64° |
| 2026-05-08 22:25 | 28.59822 | -80.66374 | 500 ft | 0 kts | 64° |
| 2026-05-08 22:26 | 28.59824 | -80.66373 | 520 ft | 0 kts | 336° |
| 2026-05-08 22:26 | 28.59827 | -80.66374 | 501 ft | 0 kts | 336° |
| 2026-05-08 22:26 | 28.59826 | -80.66374 | 483 ft | 0 kts | 336° |
| 2026-05-08 22:26 | 28.59827 | -80.66375 | 466 ft | 0 kts | 336° |
| 2026-05-08 22:27 | 28.59827 | -80.66374 | 453 ft | 0 kts | 336° |
| 2026-05-08 22:27 | 28.59827 | -80.66377 | 422 ft | 1 kts | 114° |
| 2026-05-08 22:27 | 28.59825 | -80.66377 | 439 ft | 0 kts | 102° |
| 2026-05-08 22:28 | 28.59823 | -80.66353 | 447 ft | 6 kts | 95° |
| 2026-05-08 22:28 | 28.59837 | -80.66156 | 516 ft | 52 kts | 65° |
| 2026-05-08 22:28 | 28.60234 | -80.65667 | 570 ft | 114 kts | 22° |
| 2026-05-08 22:28 | 28.61077 | -80.65320 | 557 ft | 139 kts | 13° |
| 2026-05-08 22:29 | 28.62038 | -80.65117 | 532 ft | 142 kts | 14° |
| 2026-05-08 22:29 | 28.63032 | -80.64979 | 554 ft | 145 kts | 8° |
| 2026-05-08 22:29 | 28.64034 | -80.64871 | 551 ft | 145 kts | 8° |
| 2026-05-08 22:29 | 28.65001 | -80.65046 | 447 ft | 139 kts | 342° |
| 2026-05-08 22:30 | 28.65855 | -80.65514 | 492 ft | 137 kts | 332° |
| 2026-05-08 22:30 | 28.66661 | -80.66090 | 448 ft | 137 kts | 333° |
| 2026-05-08 22:30 | 28.67411 | -80.66763 | 412 ft | 134 kts | 309° |
| 2026-05-08 22:30 | 28.67582 | -80.67670 | 453 ft | 116 kts | 219° |
| 2026-05-08 22:31 | 28.66991 | -80.68100 | 383 ft | 109 kts | 188° |
| 2026-05-08 22:31 | 28.66215 | -80.68227 | 408 ft | 115 kts | 185° |
| 2026-05-08 22:31 | 28.65372 | -80.68304 | 503 ft | 129 kts | 181° |
| 2026-05-08 22:31 | 28.64454 | -80.68395 | 469 ft | 135 kts | 185° |
| 2026-05-08 22:32 | 28.63527 | -80.68453 | 615 ft | 131 kts | 180° |
| 2026-05-08 22:32 | 28.62582 | -80.68558 | 681 ft | 147 kts | 181° |
| 2026-05-08 22:32 | 28.61532 | -80.68482 | 629 ft | 150 kts | 164° |
| 2026-05-08 22:32 | 28.60624 | -80.68004 | 647 ft | 139 kts | 147° |
| 2026-05-08 22:33 | 28.59806 | -80.67451 | 738 ft | 135 kts | 146° |
| 2026-05-08 22:33 | 28.58985 | -80.66923 | 698 ft | 132 kts | 150° |
| 2026-05-08 22:33 | 28.58256 | -80.66586 | 933 ft | 102 kts | 154° |
| 2026-05-08 22:33 | 28.57632 | -80.66371 | 1120 ft | 86 kts | 160° |
| 2026-05-08 22:34 | 28.57095 | -80.66190 | 1258 ft | 76 kts | 158° |
| 2026-05-08 22:34 | 28.56585 | -80.66045 | 1329 ft | 81 kts | 132° |
| 2026-05-08 22:34 | 28.56039 | -80.65599 | 1061 ft | 107 kts | 107° |
| 2026-05-08 22:34 | 28.55984 | -80.64772 | 894 ft | 121 kts | 56° |
| 2026-05-08 22:35 | 28.56731 | -80.64156 | 543 ft | 139 kts | 22° |
| 2026-05-08 22:35 | 28.57571 | -80.63654 | 530 ft | 133 kts | 38° |
| 2026-05-08 22:35 | 28.58404 | -80.63335 | 632 ft | 124 kts | 17° |
| 2026-05-08 22:35 | 28.59207 | -80.63285 | 874 ft | 94 kts | 15° |
| 2026-05-08 22:36 | 28.59738 | -80.63275 | 1139 ft | 62 kts | 7° |
| 2026-05-08 22:36 | 28.60227 | -80.63303 | 1108 ft | 89 kts | 15° |
| 2026-05-08 22:36 | 28.60953 | -80.63148 | 885 ft | 120 kts | 24° |
| 2026-05-08 22:36 | 28.61821 | -80.62992 | 815 ft | 135 kts | 359° |
| 2026-05-08 22:37 | 28.62690 | -80.63484 | 654 ft | 148 kts | 317° |
| 2026-05-08 22:37 | 28.63111 | -80.64494 | 631 ft | 141 kts | 272° |
| 2026-05-08 22:37 | 28.62817 | -80.65506 | 550 ft | 137 kts | 226° |
| 2026-05-08 22:37 | 28.62011 | -80.65850 | 566 ft | 123 kts | 168° |
| 2026-05-08 22:38 | 28.61203 | -80.65521 | 518 ft | 125 kts | 154° |
| 2026-05-08 22:38 | 28.60439 | -80.65092 | 538 ft | 119 kts | 151° |
| 2026-05-08 22:38 | 28.59702 | -80.64716 | 627 ft | 116 kts | 152° |
| 2026-05-08 22:38 | 28.58961 | -80.64353 | 542 ft | 115 kts | 150° |
| 2026-05-08 22:39 | 28.58231 | -80.63969 | 408 ft | 115 kts | 147° |
| 2026-05-08 22:39 | 28.57556 | -80.63527 | 468 ft | 112 kts | 146° |
| 2026-05-08 22:39 | 28.56868 | -80.63102 | 569 ft | 118 kts | 159° |
| 2026-05-08 22:39 | 28.56031 | -80.63370 | 582 ft | 140 kts | 213° |
| 2026-05-08 22:40 | 28.55548 | -80.64350 | 521 ft | 148 kts | 258° |
| 2026-05-08 22:40 | 28.55772 | -80.65438 | 592 ft | 140 kts | 305° |
| 2026-05-08 22:40 | 28.56489 | -80.66153 | 507 ft | 130 kts | 330° |
| 2026-05-08 22:40 | 28.57187 | -80.66698 | 674 ft | 119 kts | 338° |
| 2026-05-08 22:41 | 28.57925 | -80.67138 | 564 ft | 120 kts | 338° |
| 2026-05-08 22:41 | 28.58645 | -80.67553 | 475 ft | 111 kts | 337° |
| 2026-05-08 22:41 | 28.59225 | -80.67973 | 327 ft | 85 kts | 335° |
| 2026-05-08 22:41 | 28.59612 | -80.68281 | 148 ft | 42 kts | 339° |
| 2026-05-08 22:42 | 28.59708 | -80.68312 | 51 ft | 16 kts | 49° |
| 2026-05-08 22:42 | 28.59743 | -80.68214 | 29 ft | 6 kts | 91° |
| 2026-05-08 22:42 | 28.59735 | -80.68173 | 22 ft | 3 kts | 92° |
| 2026-05-08 22:42 | 28.59735 | -80.68152 | 15 ft | 6 kts | 90° |
| 2026-05-08 22:43 | 28.59742 | -80.68109 | 15 ft | 12 kts | 70° |
| 2026-05-08 22:43 | 28.59819 | -80.68062 | 16 ft | 8 kts | 17° |
| 2026-05-08 22:43 | 28.59864 | -80.68045 | 16 ft | 6 kts | 19° |
| 2026-05-08 22:43 | 28.59909 | -80.68021 | 16 ft | 7 kts | 46° |
| 2026-05-08 22:44 | 28.59933 | -80.67986 | 16 ft | 6 kts | 60° |
| 2026-05-08 22:44 | 28.59952 | -80.67958 | 16 ft | 10 kts | 45° |
| 2026-05-08 22:44 | 28.59981 | -80.67921 | 16 ft | 0 kts | 54° |